Time;durP1;ratioP1;P1;durP2;ratioP2;P2;SDS_P1;SDS_P2;PMS_P1;PMS_P2;Temp;Humidity;BMP_temperature;BMP_pressure;BME280_temperature;BME280_humidity;BME280_pressure;Samples;Min_cycle;Max_cycle;Signal;HPM_P1;HPM_P2
2022/09/21 00:00:09;;;;;;;6.57;3.90;;;;;;;10.52;78.60;102644.41;6239248;23;20480;-85
2022/09/21 00:02:35;;;;;;;4.97;3.45;;;;;;;10.51;78.33;102654.78;6243052;22;20062;-84
2022/09/21 00:05:00;;;;;;;5.78;3.20;;;;;;;10.48;78.36;102649.88;6241130;23;20004;-84
2022/09/21 00:07:26;;;;;;;5.10;3.63;;;;;;;10.41;78.64;102646.75;6242455;22;20012;-84
2022/09/21 00:09:51;;;;;;;8.23;2.85;;;;;;;10.38;78.50;102639.03;6241430;22;20351;-84
2022/09/21 00:12:18;;;;;;;5.63;3.20;;;;;;;10.44;78.66;102656.47;6239556;23;20352;-84
2022/09/21 00:14:43;;;;;;;7.10;2.70;;;;;;;10.43;78.41;102657.63;6239128;22;20433;-85
2022/09/21 00:17:09;;;;;;;6.18;3.40;;;;;;;10.40;78.16;102647.91;6241925;22;20070;-84
2022/09/21 00:19:34;;;;;;;5.35;2.83;;;;;;;10.22;78.17;102624.69;6240640;23;20447;-85
2022/09/21 00:22:00;;;;;;;6.25;3.20;;;;;;;10.36;78.67;102653.34;6241397;23;20016;-85
2022/09/21 00:24:26;;;;;;;5.22;3.47;;;;;;;10.35;79.01;102651.72;6239777;23;20000;-86
2022/09/21 00:26:52;;;;;;;10.00;3.47;;;;;;;10.36;78.90;102658.13;6242020;23;20391;-85
2022/09/21 00:29:17;;;;;;;5.40;3.65;;;;;;;10.31;78.66;102655.53;6240429;22;20004;-86
2022/09/21 00:31:42;;;;;;;5.40;2.95;;;;;;;10.29;78.94;102653.06;6237806;23;20012;-86
2022/09/21 00:34:08;;;;;;;6.78;3.47;;;;;;;10.24;78.03;102630.78;6241938;23;20310;-85
2022/09/21 00:36:34;;;;;;;5.70;3.90;;;;;;;10.25;78.08;102657.63;6237515;23;20455;-85
2022/09/21 00:39:00;;;;;;;5.93;3.05;;;;;;;10.17;78.33;102642.50;6241657;22;20058;-86
2022/09/21 00:41:28;;;;;;;4.93;3.53;;;;;;;10.26;78.10;102653.66;6240004;22;20015;-85
2022/09/21 00:44:30;;;;;;;4.78;3.05;;;;;;;10.25;78.08;102663.22;6233059;23;20027;-85
2022/09/21 00:47:01;;;;;;;5.30;2.97;;;;;;;10.20;78.74;102654.19;6236714;23;20027;-84
2022/09/21 00:49:27;;;;;;;8.88;4.43;;;;;;;10.14;79.06;102650.72;6239773;22;20148;-84
2022/09/21 00:51:55;;;;;;;5.03;3.13;;;;;;;10.15;78.39;102652.38;6238258;23;20043;-84
2022/09/21 00:54:33;;;;;;;4.38;3.25;;;;;;;10.16;78.75;102668.00;6237772;23;20016;-85
2022/09/21 00:57:01;;;;;;;7.28;3.83;;;;;;;10.10;78.81;102650.59;6236524;23;20087;-85
2022/09/21 00:59:30;;;;;;;5.20;3.10;;;;;;;10.11;78.42;102662.59;6241224;22;20091;-85
2022/09/21 01:01:57;;;;;;;4.72;3.45;;;;;;;10.09;78.21;102659.31;6240197;23;20467;-85
2022/09/21 01:04:23;;;;;;;6.10;3.13;;;;;;;10.06;78.24;102663.59;6241938;23;20004;-85
2022/09/21 01:06:49;;;;;;;8.73;4.05;;;;;;;10.02;78.33;102653.41;6242764;23;20352;-84
2022/09/21 01:09:16;;;;;;;4.60;3.15;;;;;;;10.02;78.55;102656.19;6239935;23;20555;-84
2022/09/21 01:12:04;;;;;;;6.43;3.30;;;;;;;10.01;78.78;102654.53;6238824;23;20012;-85
2022/09/21 01:14:38;;;;;;;5.10;2.90;;;;;;;10.01;78.30;102652.56;6239833;23;20337;-85
2022/09/21 01:17:37;;;;;;;8.85;3.53;;;;;;;10.00;78.59;102656.53;6237348;23;20081;-85
2022/09/21 01:20:33;;;;;;;7.80;3.60;;;;;;;9.97;77.72;102658.00;6240464;23;20011;-85
2022/09/21 01:23:20;;;;;;;5.88;3.75;;;;;;;9.95;78.14;102654.72;6240890;23;20074;-85
2022/09/21 01:26:19;;;;;;;6.15;3.13;;;;;;;9.93;78.64;102659.81;6240962;23;20011;-85
2022/09/21 01:29:18;;;;;;;7.35;3.08;;;;;;;9.93;78.05;102656.22;6239256;23;20015;-85
2022/09/21 01:32:06;;;;;;;7.72;3.50;;;;;;;9.91;78.52;102666.91;6237856;23;20119;-85
2022/09/21 01:35:01;;;;;;;6.32;3.95;;;;;;;9.89;78.03;102653.25;6193881;22;20004;-85
2022/09/21 01:37:48;;;;;;;5.15;3.60;;;;;;;9.87;78.22;102658.34;6234282;23;20016;-85
2022/09/21 01:40:22;;;;;;;4.70;3.20;;;;;;;9.79;78.61;102653.56;6237474;23;20006;-85
2022/09/21 01:42:49;;;;;;;6.18;3.10;;;;;;;9.82;78.41;102650.09;6239275;22;20386;-85
2022/09/21 01:45:19;;;;;;;4.53;3.47;;;;;;;9.82;78.68;102652.91;6241025;23;20087;-85
2022/09/21 01:47:48;;;;;;;4.43;3.88;;;;;;;9.79;78.72;102650.78;6240779;22;20012;-85
2022/09/21 01:50:17;;;;;;;4.97;3.55;;;;;;;9.74;78.65;102645.34;6238771;23;20011;-86
2022/09/21 01:52:58;;;;;;;6.38;3.75;;;;;;;9.76;78.86;102648.63;6239230;23;20041;-85
2022/09/21 01:55:29;;;;;;;9.18;4.13;;;;;;;9.72;78.39;102644.84;6238714;23;20020;-85
2022/09/21 01:58:00;;;;;;;5.63;3.10;;;;;;;9.52;78.42;102629.53;6238172;23;20440;-85
2022/09/21 02:00:28;;;;;;;6.40;3.35;;;;;;;9.71;78.44;102648.78;6239536;23;20016;-85
2022/09/21 02:03:20;;;;;;;7.30;3.95;;;;;;;9.68;78.45;102649.47;6238219;23;20398;-85
2022/09/21 02:05:45;;;;;;;8.07;4.55;;;;;;;9.65;78.51;102645.31;6239639;23;20403;-85
2022/09/21 02:08:11;;;;;;;7.88;3.55;;;;;;;9.69;78.48;102648.31;6239999;23;20039;-85
2022/09/21 02:10:44;;;;;;;5.97;3.17;;;;;;;9.53;78.68;102637.63;6240239;23;20075;-85
2022/09/21 02:13:13;;;;;;;6.07;4.13;;;;;;;9.64;78.38;102646.50;6238618;23;20008;-85
2022/09/21 02:15:49;;;;;;;6.45;3.55;;;;;;;9.67;79.21;102653.41;6237132;23;20012;-85
2022/09/21 02:18:26;;;;;;;4.93;3.78;;;;;;;9.62;78.17;102653.56;6239472;23;20000;-85
2022/09/21 02:20:56;;;;;;;8.90;4.20;;;;;;;9.57;78.48;102648.94;6236393;23;20483;-86
2022/09/21 02:23:35;;;;;;;5.03;3.75;;;;;;;9.63;78.06;102658.00;6240078;23;20444;-85
2022/09/21 02:26:11;;;;;;;8.20;3.95;;;;;;;9.54;78.16;102646.81;6242526;23;20483;-85
2022/09/21 02:28:50;;;;;;;6.35;4.38;;;;;;;9.56;78.09;102650.09;6239424;22;20085;-87
2022/09/21 02:32:08;;;;;;;6.40;3.90;;;;;;;9.55;77.97;102651.28;6239115;23;20046;-85
2022/09/21 02:34:39;;;;;;;10.25;3.65;;;;;;;9.54;78.18;102656.00;6217731;23;20020;-85
2022/09/21 02:37:23;;;;;;;6.07;3.47;;;;;;;9.52;78.78;102657.50;6236051;23;20095;-85
2022/09/21 02:40:03;;;;;;;4.50;3.45;;;;;;;9.46;78.90;102654.03;6239111;22;20480;-86
2022/09/21 02:42:36;;;;;;;6.80;3.47;;;;;;;9.45;78.38;102655.19;6235032;23;20471;-86
2022/09/21 02:45:25;;;;;;;6.72;3.95;;;;;;;9.32;78.29;102631.00;6237959;23;20012;-86
2022/09/21 02:47:58;;;;;;;6.95;4.45;;;;;;;9.45;77.87;102652.41;6239144;23;20445;-86
2022/09/21 02:50:32;;;;;;;6.97;4.68;;;;;;;9.46;77.64;102647.63;6240593;22;20016;-86
2022/09/21 02:52:59;;;;;;;5.03;3.83;;;;;;;9.32;78.22;102628.22;6239873;23;20008;-86
2022/09/21 02:55:26;;;;;;;4.40;3.60;;;;;;;9.30;78.14;102638.91;6238021;23;20376;-85
2022/09/21 02:57:53;;;;;;;7.05;4.32;;;;;;;9.38;77.98;102649.25;6240382;22;20004;-85
2022/09/21 03:00:19;;;;;;;7.60;3.83;;;;;;;9.33;78.01;102638.25;6240435;23;20285;-85
2022/09/21 03:02:44;;;;;;;6.57;3.80;;;;;;;9.32;77.95;102636.59;6242570;22;20074;-87
2022/09/21 03:05:12;;;;;;;7.50;4.57;;;;;;;9.30;78.01;102641.69;6239364;23;20067;-85
2022/09/21 03:07:37;;;;;;;4.70;3.72;;;;;;;9.28;77.95;102635.63;6239024;23;20008;-85
2022/09/21 03:10:04;;;;;;;8.55;4.30;;;;;;;9.31;78.11;102641.34;6237209;23;20019;-85
2022/09/21 03:12:29;;;;;;;5.20;3.97;;;;;;;9.24;78.00;102634.63;6237344;23;20111;-85
2022/09/21 03:14:55;;;;;;;5.15;3.60;;;;;;;9.30;78.16;102644.50;6240179;23;20119;-85
2022/09/21 03:17:21;;;;;;;5.85;4.10;;;;;;;9.29;78.38;102651.22;6237363;23;20015;-86
2022/09/21 03:19:46;;;;;;;6.28;3.53;;;;;;;9.22;77.98;102645.28;6239389;23;20061;-85
2022/09/21 03:22:11;;;;;;;6.35;3.60;;;;;;;9.09;78.94;102622.75;6238814;22;20087;-86
2022/09/21 03:24:46;;;;;;;9.18;4.43;;;;;;;9.19;78.16;102643.94;6237816;23;20044;-86
2022/09/21 03:27:21;;;;;;;8.57;4.75;;;;;;;9.11;77.92;102633.59;6239676;22;20054;-85
2022/09/21 03:29:46;;;;;;;7.88;4.00;;;;;;;9.13;77.87;102636.91;6237916;23;20086;-86
2022/09/21 03:32:13;;;;;;;8.60;3.92;;;;;;;9.13;77.92;102634.91;6237837;23;20074;-85
2022/09/21 03:34:39;;;;;;;5.57;4.15;;;;;;;9.19;78.32;102649.53;6237223;23;20015;-86
2022/09/21 03:37:06;;;;;;;7.07;4.15;;;;;;;9.07;78.39;102635.41;6236770;23;20352;-86
2022/09/21 03:39:31;;;;;;;12.75;4.68;;;;;;;9.06;78.30;102631.75;6237354;23;20380;-86
2022/09/21 03:41:57;;;;;;;6.57;4.93;;;;;;;9.12;78.32;102644.44;6236870;23;20091;-86
2022/09/21 03:44:25;;;;;;;5.22;4.50;;;;;;;9.18;77.73;102652.69;6236094;23;20019;-85
2022/09/21 03:46:51;;;;;;;8.75;4.45;;;;;;;9.11;78.56;102653.97;6237047;23;20516;-85
2022/09/21 03:49:17;;;;;;;4.93;3.53;;;;;;;9.03;77.84;102635.22;6236589;22;20011;-85
2022/09/21 03:51:43;;;;;;;5.53;3.70;;;;;;;9.08;78.34;102651.81;6236132;23;20012;-85
2022/09/21 03:54:08;;;;;;;5.45;4.47;;;;;;;9.01;78.25;102643.09;6218040;23;20196;-85
2022/09/21 03:56:34;;;;;;;5.22;3.47;;;;;;;9.08;78.19;102651.81;6180162;23;20023;-85
2022/09/21 03:58:59;;;;;;;5.38;4.25;;;;;;;8.98;77.82;102648.50;6180856;23;20012;-86
2022/09/21 04:01:25;;;;;;;7.35;3.35;;;;;;;9.00;78.49;102647.03;6179137;23;20040;-87
2022/09/21 04:03:50;;;;;;;6.10;3.35;;;;;;;8.94;78.04;102634.38;6206817;23;20253;-86
2022/09/21 04:06:17;;;;;;;5.22;3.17;;;;;;;9.00;78.23;102658.19;6182038;23;20523;-85
2022/09/21 04:08:43;;;;;;;15.48;4.85;;;;;;;8.97;78.36;102658.84;6182066;23;20008;-85
2022/09/21 04:11:12;;;;;;;5.93;4.15;;;;;;;8.95;78.30;102649.97;6182683;23;20085;-85
2022/09/21 04:13:38;;;;;;;7.07;4.05;;;;;;;8.87;78.23;102648.78;6183414;23;20384;-85
2022/09/21 04:16:04;;;;;;;5.40;3.08;;;;;;;8.94;79.25;102656.72;6181325;23;20072;-85
2022/09/21 04:18:31;;;;;;;8.65;4.30;;;;;;;8.93;79.33;102663.44;6183306;23;20039;-85
2022/09/21 04:20:56;;;;;;;6.38;3.67;;;;;;;8.92;80.44;102659.00;6182789;23;20027;-85
2022/09/21 04:23:22;;;;;;;4.75;4.03;;;;;;;8.85;80.72;102644.69;6210045;23;20004;-85
2022/09/21 04:25:51;;;;;;;6.15;3.75;;;;;;;8.93;80.78;102664.25;6212311;23;20013;-84
2022/09/21 04:28:17;;;;;;;4.20;3.25;;;;;;;8.95;81.05;102663.94;6182451;23;20386;-85
2022/09/21 04:30:42;;;;;;;4.93;3.00;;;;;;;8.90;81.13;102664.09;6184247;23;20075;-85
2022/09/21 04:33:07;;;;;;;5.38;3.17;;;;;;;8.88;81.62;102660.81;6183819;23;20013;-87
2022/09/21 04:35:33;;;;;;;4.63;3.28;;;;;;;8.92;81.53;102659.00;6209141;23;20013;-86
2022/09/21 04:37:58;;;;;;;4.25;3.78;;;;;;;8.92;81.66;102656.22;6183519;23;20008;-86
2022/09/21 04:40:24;;;;;;;4.93;3.75;;;;;;;8.91;82.07;102655.38;6210331;23;20333;-88
2022/09/21 04:42:52;;;;;;;5.75;3.25;;;;;;;8.97;82.32;102667.22;6183292;23;20051;-86
2022/09/21 04:45:17;;;;;;;4.80;3.30;;;;;;;8.91;81.99;102658.16;6210163;23;20009;-85
2022/09/21 04:47:43;;;;;;;3.90;3.10;;;;;;;8.94;81.43;102668.72;6184935;23;20016;-86
2022/09/21 04:50:08;;;;;;;4.05;3.13;;;;;;;8.92;81.44;102672.97;6185085;23;20013;-86
2022/09/21 04:52:34;;;;;;;3.83;2.83;;;;;;;8.91;81.86;102671.31;6183974;23;20008;-85
2022/09/21 04:54:59;;;;;;;3.72;2.88;;;;;;;8.89;80.98;102668.84;6219954;23;20023;-86
2022/09/21 04:57:25;;;;;;;2.65;2.20;;;;;;;8.87;81.04;102671.13;6240924;23;20016;-86
2022/09/21 04:59:50;;;;;;;3.63;2.25;;;;;;;8.75;81.15;102652.22;6240376;23;20012;-86
2022/09/21 05:02:16;;;;;;;2.58;2.10;;;;;;;8.85;81.09;102672.59;6241685;23;20035;-86
2022/09/21 05:04:41;;;;;;;3.20;2.30;;;;;;;8.85;80.91;102670.63;6238559;23;20000;-86
2022/09/21 05:07:07;;;;;;;2.42;2.05;;;;;;;8.86;80.10;102663.09;6241421;23;20424;-87
2022/09/21 05:12:16;;;;;;;2.13;1.67;;;;;;;8.80;80.51;102676.38;6240261;23;20074;-86
2022/09/21 05:14:42;;;;;;;3.05;2.15;;;;;;;8.80;80.30;102675.56;6242453;22;20383;-86
2022/09/21 05:17:08;;;;;;;4.03;2.20;;;;;;;8.83;79.72;102680.47;6238327;23;20015;-87
2022/09/21 05:19:33;;;;;;;3.47;2.25;;;;;;;8.79;79.97;102683.13;6238722;23;20008;-86
2022/09/21 05:21:59;;;;;;;2.75;2.15;;;;;;;8.72;78.95;102677.97;6236883;23;20012;-88
2022/09/21 05:24:24;;;;;;;2.35;2.15;;;;;;;8.80;79.89;102686.72;6236576;23;20317;-87
2022/09/21 05:26:50;;;;;;;2.65;2.20;;;;;;;8.59;79.52;102658.53;6236793;23;20015;-88
2022/09/21 05:29:16;;;;;;;4.25;2.53;;;;;;;8.75;79.51;102690.47;6238570;22;20086;-88
2022/09/21 05:31:47;;;;;;;5.63;2.95;;;;;;;8.70;79.90;102704.56;6235835;23;20091;-88
2022/09/21 05:34:39;;;;;;;5.57;2.97;;;;;;;8.68;78.89;102695.69;6238244;23;20004;-88
2022/09/21 05:37:24;;;;;;;5.97;2.70;;;;;;;8.71;78.89;102706.22;6236417;22;20083;-88
2022/09/21 05:39:50;;;;;;;5.50;3.20;;;;;;;8.61;79.29;102686.97;6221402;23;20757;-89
2022/09/21 05:42:15;;;;;;;5.60;3.55;;;;;;;8.63;78.82;102687.47;6239834;23;20066;-89
2022/09/21 05:44:41;;;;;;;5.38;3.20;;;;;;;8.68;78.76;102696.50;6236310;23;20243;-89
2022/09/21 05:47:29;;;;;;;4.43;3.45;;;;;;;8.67;79.07;102700.44;6238455;23;20019;-89
2022/09/21 05:49:57;;;;;;;4.30;3.13;;;;;;;8.66;79.17;102701.56;6237850;22;20000;-89
2022/09/21 05:52:39;;;;;;;8.13;3.92;;;;;;;8.63;79.24;102701.41;6237268;23;20512;-88
2022/09/21 05:55:32;;;;;;;7.53;4.00;;;;;;;8.61;79.96;102698.94;6237471;22;20451;-89
2022/09/21 05:58:03;;;;;;;9.98;4.70;;;;;;;8.68;79.73;102702.09;6208550;23;20015;-88
2022/09/21 06:00:53;;;;;;;4.45;3.55;;;;;;;8.62;79.77;102708.97;6208247;23;20345;-89
2022/09/21 06:03:19;;;;;;;8.25;4.50;;;;;;;8.64;79.90;102712.25;6212893;23;20024;-90
2022/09/21 06:05:44;;;;;;;5.50;3.83;;;;;;;8.62;79.86;102700.59;6208185;23;20429;-89
2022/09/21 06:08:10;;;;;;;10.23;4.93;;;;;;;8.51;79.88;102690.84;6212567;23;20432;-89
2022/09/21 06:10:35;;;;;;;4.22;3.38;;;;;;;8.62;79.94;102714.56;6211297;23;20019;-89
2022/09/21 06:13:01;;;;;;;7.47;2.55;;;;;;;12.34;86.71;102701.31;6213796;23;20062;-79
2022/09/21 06:15:26;;;;;;;9.43;2.70;;;;;;;14.81;72.66;102708.22;6213608;23;20012;-77
2022/09/21 06:17:52;;;;;;;6.55;2.65;;;;;;;15.61;68.58;102711.78;6239810;23;20008;-77
2022/09/21 06:20:17;;;;;;;4.22;2.30;;;;;;;15.76;66.80;102715.78;6241366;23;20011;-77
2022/09/21 06:22:43;;;;;;;6.20;2.70;;;;;;;15.78;66.18;102713.41;6240213;23;20015;-77
2022/09/21 06:25:08;;;;;;;6.05;2.88;;;;;;;15.73;65.23;102712.88;6238966;23;20432;-77
2022/09/21 06:27:34;;;;;;;6.15;3.28;;;;;;;12.32;66.77;102717.66;6240553;23;20084;-81
2022/09/21 06:29:59;;;;;;;7.30;4.05;;;;;;;10.51;74.01;102715.56;6239008;23;20012;-84
2022/09/21 06:32:24;;;;;;;5.25;4.15;;;;;;;10.15;75.85;102708.34;6243107;23;20000;-83
2022/09/21 06:34:50;;;;;;;6.18;4.22;;;;;;;9.98;76.76;102720.38;6215196;23;20069;-83
2022/09/21 06:37:15;;;;;;;5.97;4.03;;;;;;;9.80;77.71;102722.31;6242758;23;20328;-83
2022/09/21 06:39:41;;;;;;;6.38;3.83;;;;;;;9.67;78.25;102714.91;6240735;23;20066;-83
2022/09/21 06:42:06;;;;;;;6.15;3.83;;;;;;;9.53;78.26;102726.25;6215064;23;20034;-83
2022/09/21 06:44:32;;;;;;;10.38;4.35;;;;;;;9.45;79.03;102716.69;6240265;23;20015;-83
2022/09/21 06:46:57;;;;;;;8.70;4.50;;;;;;;9.40;79.12;102716.81;6211704;23;20004;-83
2022/09/21 06:49:23;;;;;;;6.30;4.30;;;;;;;9.35;79.57;102711.41;6216296;23;20388;-83
2022/09/21 06:51:48;;;;;;;6.50;4.22;;;;;;;9.31;79.31;102713.19;6216487;23;20030;-83
2022/09/21 06:54:14;;;;;;;8.55;4.25;;;;;;;9.25;79.44;102711.69;6243139;23;20008;-83
2022/09/21 06:56:42;;;;;;;7.78;4.07;;;;;;;9.25;79.21;102725.66;6216203;23;20475;-83
2022/09/21 06:59:07;;;;;;;4.35;3.55;;;;;;;9.20;81.21;102715.47;6214165;23;20446;-83
2022/09/21 07:01:33;;;;;;;8.02;4.03;;;;;;;9.23;79.77;102720.38;6242823;23;20075;-83
2022/09/21 07:03:58;;;;;;;6.90;3.90;;;;;;;9.19;80.40;102726.94;6214830;23;20012;-83
2022/09/21 07:06:24;;;;;;;9.48;4.07;;;;;;;9.20;80.15;102723.84;6214327;23;20062;-84
2022/09/21 07:08:52;;;;;;;5.53;3.60;;;;;;;9.23;80.10;102719.56;6214653;23;20078;-83
2022/09/21 07:11:18;;;;;;;7.30;3.90;;;;;;;9.23;80.44;102727.97;6241309;23;20019;-83
2022/09/21 07:13:44;;;;;;;9.77;4.95;;;;;;;9.19;79.93;102726.94;6241117;23;20000;-83
2022/09/21 07:16:10;;;;;;;5.68;3.95;;;;;;;9.14;80.36;102720.38;6214762;23;20015;-83
2022/09/21 07:18:37;;;;;;;6.18;4.22;;;;;;;9.19;81.49;102732.53;6215824;23;20031;-83
2022/09/21 07:21:05;;;;;;;4.68;4.10;;;;;;;9.18;80.12;102725.31;6213171;23;20390;-83
2022/09/21 07:23:30;;;;;;;5.97;3.70;;;;;;;9.09;81.99;102734.50;6241914;23;20000;-83
2022/09/21 07:26:00;;;;;;;8.73;5.40;;;;;;;9.15;92.34;102730.41;6239755;23;20023;-83
2022/09/21 07:28:26;;;;;;;11.10;5.93;;;;;;;9.14;90.51;102730.72;6242081;23;20388;-83
2022/09/21 07:30:52;;;;;;;7.30;5.40;;;;;;;9.07;91.21;102731.19;6241406;23;20012;-82
2022/09/21 07:33:17;;;;;;;8.95;4.07;;;;;;;9.05;87.73;102727.91;6240227;23;20046;-84
2022/09/21 07:35:50;;;;;;;11.00;6.10;;;;;;;9.12;97.12;102733.84;6214484;23;20340;-84
2022/09/21 07:38:15;;;;;;;;;;;;;;;9.11;94.25;102725.78;6238652;23;20023;-83
2022/09/21 07:40:41;;;;;;;10.20;4.72;;;;;;;9.12;95.56;102728.25;6240045;23;19908;-83
2022/09/21 07:43:06;;;;;;;10.43;6.40;;;;;;;9.18;100.00;102725.31;6214701;23;20019;-84
2022/09/21 07:45:31;;;;;;;11.38;6.53;;;;;;;9.29;100.00;102723.88;6212495;23;20012;-84
2022/09/21 07:48:04;;;;;;;10.07;5.90;;;;;;;9.35;100.00;102720.59;6241025;23;20365;-84
2022/09/21 07:50:30;;;;;;;11.38;6.28;;;;;;;9.46;100.00;102732.28;6215635;23;20051;-84
2022/09/21 07:52:58;;;;;;;10.20;5.88;;;;;;;9.39;100.00;102734.75;6214449;23;20454;-83
2022/09/21 07:55:23;;;;;;;11.38;6.60;;;;;;;9.51;100.00;102725.75;6234301;23;20472;-84
2022/09/21 08:00:34;;;;;;;13.48;5.65;;;;;;;9.78;99.60;102721.81;6241276;23;20081;-83
2022/09/21 08:03:00;;;;;;;12.38;5.18;;;;;;;9.90;98.83;102724.78;6238715;23;20441;-83
2022/09/21 08:05:26;;;;;;;15.68;6.03;;;;;;;10.07;99.15;102723.16;6241042;22;20018;-84
2022/09/21 08:07:54;;;;;;;10.68;4.85;;;;;;;9.98;98.89;102726.78;6240365;23;20016;-83
2022/09/21 08:10:20;;;;;;;18.52;5.97;;;;;;;10.04;100.00;102729.44;6240310;22;20004;-83
2022/09/21 08:12:45;;;;;;;24.67;6.15;;;;;;;10.18;99.40;102727.25;6241460;23;20333;-84
2022/09/21 08:15:13;;;;;;;11.38;5.72;;;;;;;10.43;98.19;102724.81;6241779;23;20011;-83
2022/09/21 08:17:39;;;;;;;12.20;5.80;;;;;;;10.31;98.60;102729.13;6241371;23;20333;-84
2022/09/21 08:20:05;;;;;;;14.95;6.60;;;;;;;10.54;99.57;102723.28;6243962;22;20038;-84
2022/09/21 08:22:31;;;;;;;20.85;7.05;;;;;;;10.67;97.83;102722.28;6241745;22;20012;-84
2022/09/21 08:24:56;;;;;;;11.80;4.90;;;;;;;10.67;96.61;102725.09;6241540;23;20038;-84
2022/09/21 08:27:24;;;;;;;9.45;4.50;;;;;;;10.67;97.50;102725.09;6239793;23;20020;-84
2022/09/21 08:29:50;;;;;;;14.70;5.07;;;;;;;10.93;96.40;102738.19;6243585;22;20425;-84
2022/09/21 08:32:16;;;;;;;14.90;4.60;;;;;;;10.98;95.73;102740.78;6241112;23;20454;-84
2022/09/21 08:34:41;;;;;;;9.30;3.63;;;;;;;10.90;95.46;102744.44;6240436;23;20083;-84
2022/09/21 08:37:07;;;;;;;17.05;5.10;;;;;;;11.21;93.54;102744.16;6241979;22;20421;-84
2022/09/21 08:39:32;;;;;;;15.38;4.10;;;;;;;11.13;92.79;102743.06;6240001;23;20081;-84
2022/09/21 08:42:07;;;;;;;9.52;3.25;;;;;;;11.37;92.05;102750.03;6238953;23;20016;-84
2022/09/21 08:44:41;;;;;;;7.78;2.65;;;;;;;11.41;91.83;102748.22;6240789;23;20028;-84
2022/09/21 08:47:18;;;;;;;8.98;3.85;;;;;;;11.51;92.21;102746.97;6242923;22;20074;-84
2022/09/21 08:49:57;;;;;;;7.85;3.13;;;;;;;11.59;90.49;102746.94;6239711;22;20000;-84
2022/09/21 08:52:23;;;;;;;9.63;2.47;;;;;;;11.62;90.30;102741.81;6244055;22;20008;-84
2022/09/21 08:55:16;;;;;;;13.40;4.55;;;;;;;11.84;90.08;102752.72;6241294;23;20106;-84
2022/09/21 08:57:41;;;;;;;7.50;2.30;;;;;;;11.88;88.01;102742.47;6243575;22;20438;-84
2022/09/21 09:00:14;;;;;;;10.35;3.10;;;;;;;11.94;88.63;102743.91;6242887;23;20083;-85
2022/09/21 09:03:01;;;;;;;9.20;2.20;;;;;;;11.92;89.47;102746.25;6243226;23;20086;-85
2022/09/21 09:05:58;;;;;;;14.57;3.03;;;;;;;12.24;88.01;102740.22;6243018;22;20016;-84
2022/09/21 09:08:46;;;;;;;5.72;2.33;;;;;;;12.28;87.56;102750.41;6242853;23;20024;-84
2022/09/21 09:11:25;;;;;;;3.92;2.35;;;;;;;12.32;85.94;102742.94;6244355;22;20424;-85
2022/09/21 09:14:18;;;;;;;6.57;2.17;;;;;;;12.34;87.17;102743.41;6242806;22;20483;-85
2022/09/21 09:17:05;;;;;;;8.85;3.65;;;;;;;12.35;84.82;102752.66;6241898;23;20099;-84
2022/09/21 09:19:53;;;;;;;10.82;2.70;;;;;;;12.53;85.56;102744.91;6242617;23;20012;-85
2022/09/21 09:22:24;;;;;;;23.52;7.72;;;;;;;12.78;82.79;102755.03;6241741;23;20015;-85
2022/09/21 09:24:51;;;;;;;10.55;4.70;;;;;;;12.45;85.72;102745.81;6241166;23;20109;-85
2022/09/21 09:27:23;;;;;;;12.52;3.10;;;;;;;12.86;83.78;102756.13;6242200;23;20026;-86
2022/09/21 09:29:58;;;;;;;8.88;2.22;;;;;;;12.86;83.63;102755.28;6241787;23;20039;-85
2022/09/21 09:32:32;;;;;;;5.65;1.92;;;;;;;13.02;82.04;102747.81;6241245;22;20133;-85
2022/09/21 09:35:23;;;;;;;6.90;1.80;;;;;;;12.73;84.23;102758.09;6243266;22;20443;-86
2022/09/21 09:37:51;;;;;;;6.25;2.33;;;;;;;13.04;82.67;102753.91;6241780;23;20012;-86
2022/09/21 09:40:30;;;;;;;3.97;1.90;;;;;;;12.88;81.08;102759.41;6242794;22;20012;-85
2022/09/21 09:43:09;;;;;;;5.30;1.98;;;;;;;13.00;79.44;102744.53;6242762;22;20019;-85
2022/09/21 09:45:53;;;;;;;7.38;1.65;;;;;;;13.11;79.41;102756.97;6242319;22;20425;-85
2022/09/21 09:48:42;;;;;;;11.05;2.63;;;;;;;12.92;81.13;102748.25;6243599;22;20436;-86
2022/09/21 09:51:11;;;;;;;5.80;2.25;;;;;;;13.46;79.83;102756.53;6242842;22;20373;-86
2022/09/21 09:53:37;;;;;;;6.57;2.10;;;;;;;13.56;77.60;102760.88;6241012;23;20024;-83
2022/09/21 09:56:03;;;;;;;10.90;1.80;;;;;;;13.93;77.96;102758.81;6242633;23;20008;-86
2022/09/21 09:58:41;;;;;;;6.28;2.88;;;;;;;13.83;76.84;102764.97;6242203;23;20007;-85
2022/09/21 10:01:07;;;;;;;4.15;1.70;;;;;;;13.82;75.50;102757.69;6241710;23;20008;-85
2022/09/21 10:03:32;;;;;;;8.27;3.03;;;;;;;14.01;75.58;102749.41;6243088;23;20008;-85
2022/09/21 10:05:57;;;;;;;4.68;2.00;;;;;;;13.60;75.51;102754.19;6239585;23;20114;-81
2022/09/21 10:08:46;;;;;;;5.43;1.45;;;;;;;13.99;75.05;102746.13;6238537;23;20031;-81
2022/09/21 10:11:14;;;;;;;8.40;1.83;;;;;;;13.98;76.32;102743.69;6239609;23;20019;-81
2022/09/21 10:13:45;;;;;;;11.32;2.38;;;;;;;14.02;75.92;102742.63;6238526;23;20480;-81
2022/09/21 10:16:16;;;;;;;14.07;2.88;;;;;;;14.02;74.66;102742.63;6214144;23;20083;-81
2022/09/21 10:18:55;;;;;;;7.70;2.17;;;;;;;13.70;74.64;102738.81;6238014;23;20012;-81
2022/09/21 10:21:22;;;;;;;6.63;1.52;;;;;;;14.24;74.02;102734.81;6211966;23;20031;-81
2022/09/21 10:23:51;;;;;;;4.65;1.05;;;;;;;14.59;73.45;102734.22;6209621;23;20016;-81
2022/09/21 10:26:18;;;;;;;10.90;3.63;;;;;;;14.61;72.62;102737.50;6211376;23;20047;-81
2022/09/21 10:29:15;;;;;;;5.70;1.48;;;;;;;14.66;70.90;102733.59;6213037;23;20032;-80
2022/09/21 10:32:03;;;;;;;7.00;1.52;;;;;;;14.77;70.66;102743.13;6241827;23;20008;-81
2022/09/21 10:34:30;;;;;;;7.18;1.48;;;;;;;14.55;69.72;102739.75;6240495;23;20030;-81
2022/09/21 10:36:59;;;;;;;6.07;1.35;;;;;;;14.73;67.13;102745.84;6242755;23;20015;-81
2022/09/21 10:39:27;;;;;;;6.88;1.50;;;;;;;14.86;68.93;102746.59;6211449;23;20043;-81
2022/09/21 10:41:55;;;;;;;12.57;2.13;;;;;;;14.98;67.87;102743.69;6213672;23;20107;-81
2022/09/21 10:44:24;;;;;;;6.97;1.90;;;;;;;15.15;65.61;102739.69;6211614;23;20007;-81
2022/09/21 10:46:54;;;;;;;5.35;1.77;;;;;;;14.99;67.13;102734.06;6241934;23;20090;-81
2022/09/21 10:49:24;;;;;;;6.85;1.20;;;;;;;15.54;63.84;102739.03;6243317;23;20012;-81
2022/09/21 10:51:52;;;;;;;6.13;1.27;;;;;;;15.51;63.73;102746.22;6214749;23;20023;-81
2022/09/21 10:54:26;;;;;;;3.50;1.08;;;;;;;15.33;64.94;102736.53;6220875;23;20461;-81
2022/09/21 10:57:01;;;;;;;6.60;1.52;;;;;;;15.26;64.63;102737.13;6242068;22;20141;-81
2022/09/21 10:59:30;;;;;;;5.80;1.48;;;;;;;14.97;65.53;102735.63;6240567;22;20004;-81
2022/09/21 11:01:58;;;;;;;6.53;1.33;;;;;;;15.19;66.59;102732.16;6241694;22;20016;-81
2022/09/21 11:04:47;;;;;;;6.13;0.98;;;;;;;15.97;63.74;102728.72;6242545;22;20337;-82
2022/09/21 11:07:19;;;;;;;4.95;1.70;;;;;;;15.88;64.62;102737.44;6242264;22;20338;-81
2022/09/21 11:09:57;;;;;;;3.78;1.02;;;;;;;15.94;63.28;102735.94;6239788;22;20012;-81
2022/09/21 11:12:46;;;;;;;4.00;1.13;;;;;;;16.49;62.10;102726.56;6241080;22;20006;-81
2022/09/21 11:15:55;;;;;;;4.68;1.70;;;;;;;16.37;59.44;102734.00;6240401;22;20051;-81
2022/09/21 11:18:20;;;;;;;5.75;1.40;;;;;;;16.65;59.98;102736.59;6196475;23;20011;-81
2022/09/21 11:20:57;;;;;;;5.80;1.45;;;;;;;16.49;61.80;102720.94;6240553;22;20008;-81
2022/09/21 11:23:46;;;;;;;4.22;1.25;;;;;;;16.92;56.40;102725.38;6241145;23;20000;-81
2022/09/21 11:26:24;;;;;;;7.65;1.35;;;;;;;16.95;57.38;102726.63;6241348;23;20452;-81
2022/09/21 11:29:14;;;;;;;3.28;0.90;;;;;;;16.43;56.69;102735.34;6243024;22;20467;-81
2022/09/21 11:31:57;;;;;;;8.60;1.98;;;;;;;16.24;55.82;102726.88;6240299;23;20099;-81
2022/09/21 11:34:36;;;;;;;10.52;1.42;;;;;;;16.64;58.41;102723.63;6243179;22;20413;-81
2022/09/21 11:37:26;;;;;;;6.93;1.65;;;;;;;16.89;54.56;102719.66;6240036;23;20030;-81
2022/09/21 11:40:15;;;;;;;8.40;1.52;;;;;;;17.30;53.94;102711.44;6241014;22;20012;-82
2022/09/21 11:42:51;;;;;;;8.55;1.20;;;;;;;17.42;54.57;102711.25;6198385;22;20433;-81
2022/09/21 11:45:57;;;;;;;4.78;0.95;;;;;;;17.04;54.98;102716.69;6238840;23;20015;-81
2022/09/21 11:48:41;;;;;;;4.35;1.08;;;;;;;17.25;55.67;102707.75;6239545;23;20008;-82
2022/09/21 11:51:37;;;;;;;5.22;1.15;;;;;;;17.30;52.93;102709.44;6239681;22;20008;-81
2022/09/21 11:54:39;;;;;;;5.10;1.00;;;;;;;17.07;53.76;102700.97;6193590;22;20522;-81